createdAt,value
2023-03-06T00:00:57.326Z,13.15
2023-03-06T00:03:27.783Z,11.25
2023-03-06T00:05:57.332Z,15.90
2023-03-06T00:08:24.977Z,12.63
2023-03-06T00:10:52.319Z,14.45
2023-03-06T00:16:44.341Z,14.45
2023-03-06T00:19:11.677Z,14.97
2023-03-06T00:21:41.127Z,14.63
2023-03-06T00:24:08.433Z,15.55
2023-03-06T00:26:36.729Z,14.48
2023-03-06T00:29:04.149Z,16.55
2023-03-06T00:31:31.484Z,16.92
2023-03-06T00:33:58.395Z,15.27
2023-03-06T00:36:25.681Z,15.15
2023-03-06T00:38:52.564Z,15.35
2023-03-06T00:41:20.436Z,15.65
2023-03-06T00:43:47.672Z,14.40
2023-03-06T00:46:14.512Z,15.35
2023-03-06T00:48:41.322Z,16.90
2023-03-06T00:51:08.652Z,19.90
2023-03-06T00:53:35.949Z,16.33
2023-03-06T00:56:02.801Z,18.38
2023-03-06T00:58:29.633Z,16.77
2023-03-06T01:00:56.863Z,15.88
2023-03-06T01:03:23.664Z,19.38
2023-03-06T01:05:52.692Z,16.77
2023-03-06T01:08:19.544Z,17.93
2023-03-06T01:10:46.833Z,18.97
2023-03-06T01:13:13.650Z,18.73
2023-03-06T01:15:40.665Z,16.00
2023-03-06T01:18:07.462Z,17.90
2023-03-06T01:20:36.769Z,18.25
2023-03-06T01:23:04.028Z,19.50
2023-03-06T01:25:30.854Z,17.73
2023-03-06T01:27:57.669Z,21.63
2023-03-06T01:30:24.896Z,19.00
2023-03-06T01:32:52.128Z,23.13
2023-03-06T01:35:19.007Z,19.60
2023-03-06T01:37:45.901Z,20.90
2023-03-06T01:40:13.418Z,19.92
2023-03-06T01:42:40.331Z,18.30
2023-03-06T01:45:13.236Z,19.95
2023-03-06T01:47:40.343Z,18.85
2023-03-06T01:50:10.373Z,19.25
2023-03-06T01:52:47.633Z,21.20
2023-03-06T01:55:18.534Z,20.23
2023-03-06T01:57:48.747Z,21.52
2023-03-06T02:00:21.077Z,21.90
2023-03-06T02:02:53.223Z,19.92
2023-03-06T02:05:20.150Z,22.02
2023-03-06T02:07:47.904Z,19.97
2023-03-06T02:10:17.879Z,18.23
2023-03-06T02:12:45.777Z,22.27
2023-03-06T02:15:15.348Z,19.75
2023-03-06T02:17:44.276Z,18.95
2023-03-06T02:20:32.097Z,20.20
2023-03-06T02:23:04.766Z,19.60
2023-03-06T02:25:34.793Z,18.58
2023-03-06T02:28:02.086Z,19.70
2023-03-06T02:30:30.582Z,19.67
2023-03-06T02:32:58.793Z,19.75
2023-03-06T02:35:30.285Z,22.17
2023-03-06T02:38:02.059Z,24.23
2023-03-06T02:40:29.534Z,23.13
2023-03-06T02:42:58.523Z,20.80
2023-03-06T02:45:35.574Z,23.83
2023-03-06T02:48:03.292Z,24.15
2023-03-06T02:50:30.939Z,21.58
2023-03-06T02:52:58.654Z,25.40
2023-03-06T02:55:25.970Z,22.17
2023-03-06T02:57:55.331Z,22.17
2023-03-06T03:00:23.670Z,22.98
2023-03-06T03:02:51.110Z,21.85
2023-03-06T03:05:18.622Z,22.35
2023-03-06T03:07:50.136Z,24.23
2023-03-06T03:10:17.285Z,22.07
2023-03-06T03:12:45.776Z,22.27
2023-03-06T03:15:13.987Z,21.70
2023-03-06T03:17:41.673Z,27.58
2023-03-06T03:20:12.324Z,23.88
2023-03-06T03:22:39.869Z,23.20
2023-03-06T03:25:07.574Z,23.60
2023-03-06T03:27:34.901Z,24.92
2023-03-06T03:30:02.237Z,23.95
2023-03-06T03:32:30.197Z,25.17
2023-03-06T03:34:57.243Z,27.97
2023-03-06T03:37:26.003Z,26.30
2023-03-06T03:39:54.621Z,27.33
2023-03-06T03:42:36.169Z,25.05
2023-03-06T03:45:05.161Z,26.88
2023-03-06T03:47:32.168Z,25.23
2023-03-06T03:50:00.211Z,26.35
2023-03-06T03:52:27.311Z,27.40
2023-03-06T03:54:54.562Z,27.27
2023-03-06T03:57:21.788Z,26.85
2023-03-06T03:59:51.518Z,27.00
2023-03-06T04:02:36.909Z,28.88
2023-03-06T04:05:14.634Z,29.80
2023-03-06T04:07:43.060Z,27.70
2023-03-06T04:10:12.509Z,25.60
2023-03-06T04:12:40.141Z,28.13
2023-03-06T04:15:08.013Z,26.17
2023-03-06T04:17:35.722Z,30.00
2023-03-06T04:20:06.058Z,28.63
2023-03-06T04:22:33.910Z,32.67
2023-03-06T04:25:00.948Z,28.70
2023-03-06T04:27:28.239Z,29.17
2023-03-06T04:29:56.413Z,31.48
2023-03-06T04:32:24.235Z,30.02
2023-03-06T04:34:51.819Z,30.98
2023-03-06T04:37:22.007Z,31.23
2023-03-06T04:39:49.500Z,32.40
2023-03-06T04:42:16.782Z,32.70
2023-03-06T04:44:43.961Z,34.92
2023-03-06T04:47:11.759Z,30.00
2023-03-06T04:49:39.087Z,31.45
2023-03-06T04:52:06.454Z,31.13
2023-03-06T04:54:33.714Z,31.63
2023-03-06T04:57:01.002Z,33.17
2023-03-06T04:59:28.231Z,31.83
2023-03-06T05:01:55.636Z,31.65
2023-03-06T05:04:23.031Z,32.90
2023-03-06T05:06:50.320Z,32.70
2023-03-06T05:09:17.598Z,35.35
2023-03-06T05:11:44.919Z,35.42
2023-03-06T05:14:12.180Z,33.10
2023-03-06T05:16:39.500Z,33.63
2023-03-06T05:19:06.425Z,31.00
2023-03-06T05:21:33.703Z,35.42
2023-03-06T05:24:01.056Z,32.00
2023-03-06T05:26:28.309Z,36.13
2023-03-06T05:28:55.701Z,33.85
2023-03-06T05:31:23.066Z,34.03
2023-03-06T05:33:49.980Z,37.20
2023-03-06T05:36:16.827Z,35.55
2023-03-06T05:38:44.073Z,36.65
2023-03-06T05:41:13.097Z,37.00
2023-03-06T05:43:40.510Z,34.45
2023-03-06T05:46:08.096Z,35.25
2023-03-06T05:48:36.596Z,35.47
2023-03-06T05:51:04.455Z,36.03
2023-03-06T05:53:32.057Z,39.13
2023-03-06T05:56:03.996Z,37.70
2023-03-06T05:58:33.053Z,37.88
2023-03-06T06:01:13.122Z,37.72
2023-03-06T06:03:40.541Z,34.83
2023-03-06T06:06:09.240Z,43.67
2023-03-06T06:08:36.620Z,37.80
2023-03-06T06:11:08.352Z,36.80
2023-03-06T06:13:35.647Z,38.17
2023-03-06T06:16:11.602Z,36.70
2023-03-06T06:18:41.126Z,38.15
2023-03-06T06:21:14.421Z,36.30
2023-03-06T06:23:42.187Z,35.28
2023-03-06T06:26:09.803Z,41.30
2023-03-06T06:28:37.643Z,39.33
2023-03-06T06:31:12.465Z,39.78
2023-03-06T06:33:40.299Z,39.95
2023-03-06T06:36:15.738Z,38.33
2023-03-06T06:38:43.077Z,39.95
2023-03-06T06:43:59.413Z,38.80
2023-03-06T06:47:17.885Z,37.70
2023-03-06T06:49:15.211Z,38.72
2023-03-06T06:51:42.583Z,42.80
2023-03-06T06:54:11.145Z,42.03
2023-03-06T06:56:39.025Z,38.80
2023-03-06T06:59:16.128Z,40.88
2023-03-06T07:01:44.487Z,39.33
2023-03-06T07:04:15.000Z,40.78
2023-03-06T07:06:43.006Z,42.95
2023-03-06T07:09:10.390Z,39.28
2023-03-06T07:11:38.961Z,41.97
2023-03-06T07:14:06.399Z,40.53
2023-03-06T07:16:33.736Z,39.92
2023-03-06T07:19:01.038Z,45.13
2023-03-06T07:21:28.374Z,42.92
2023-03-06T07:23:57.449Z,42.27
2023-03-06T07:26:25.568Z,46.13
2023-03-06T07:29:21.330Z,41.38
2023-03-06T07:31:48.698Z,40.92
2023-03-06T07:34:16.422Z,43.95
2023-03-06T07:36:43.702Z,44.92
2023-03-06T07:39:11.150Z,45.95
2023-03-06T07:41:38.446Z,46.53
2023-03-06T07:44:05.739Z,45.95
2023-03-06T07:46:33.055Z,44.47
2023-03-06T07:49:00.081Z,41.40
2023-03-06T07:51:27.407Z,43.55
2023-03-06T07:53:54.801Z,43.77
2023-03-06T07:56:22.293Z,42.28
2023-03-06T07:58:49.346Z,43.55
2023-03-06T08:01:20.031Z,41.53
2023-03-06T08:03:49.225Z,38.45
2023-03-06T08:06:19.536Z,40.70
2023-03-06T08:08:49.037Z,38.00
2023-03-06T08:11:18.803Z,41.08
2023-03-06T08:13:46.866Z,45.42
2023-03-06T08:16:14.215Z,42.50
2023-03-06T08:18:42.835Z,40.17
2023-03-06T08:21:16.377Z,39.75
2023-03-06T08:23:43.873Z,39.25
2023-03-06T08:26:21.369Z,42.28
2023-03-06T08:28:48.802Z,41.70
2023-03-06T08:33:54.883Z,36.92
2023-03-06T08:36:22.416Z,40.28
2023-03-06T08:38:49.803Z,48.40
2023-03-06T08:41:17.255Z,43.92
2023-03-06T08:43:44.747Z,38.80
2023-03-06T08:46:12.119Z,37.17
2023-03-06T08:48:39.619Z,38.13
2023-03-06T08:51:09.518Z,42.90
2023-03-06T08:53:43.110Z,43.95
2023-03-06T08:56:22.676Z,42.13
2023-03-06T08:58:50.412Z,40.00
2023-03-06T09:01:20.498Z,38.60
2023-03-06T09:03:48.069Z,38.45
2023-03-06T09:06:15.760Z,39.67
2023-03-06T09:08:44.595Z,38.75
2023-03-06T09:11:13.384Z,39.13
2023-03-06T09:13:40.711Z,35.90
2023-03-06T09:16:08.978Z,39.15
2023-03-06T09:18:36.650Z,35.33
2023-03-06T09:21:04.944Z,35.92
2023-03-06T09:23:32.394Z,38.42
2023-03-06T09:26:00.861Z,35.00
2023-03-06T09:28:28.603Z,37.00
2023-03-06T09:30:56.313Z,31.38
2023-03-06T09:33:23.774Z,29.90
2023-03-06T09:35:54.193Z,33.05
2023-03-06T09:38:24.214Z,29.98
2023-03-06T09:41:30.391Z,27.95
2023-03-06T09:44:31.559Z,30.48
2023-03-06T09:47:20.279Z,28.85
2023-03-06T09:50:14.370Z,29.48
2023-03-06T09:53:11.916Z,30.00
2023-03-06T09:55:40.797Z,31.17
2023-03-06T09:58:23.290Z,31.58
2023-03-06T10:01:16.337Z,27.25
2023-03-06T10:03:43.677Z,29.38
2023-03-06T10:06:21.130Z,31.13
2023-03-06T10:09:02.531Z,24.48
2023-03-06T10:11:39.417Z,24.27
2023-03-06T10:14:35.172Z,25.35
2023-03-06T10:17:03.371Z,25.77
2023-03-06T10:19:41.120Z,26.20
2023-03-06T10:22:36.820Z,23.85
2023-03-06T10:25:28.118Z,24.73
2023-03-06T10:28:08.835Z,24.17
2023-03-06T10:31:11.538Z,24.67
2023-03-06T10:34:07.962Z,24.73
2023-03-06T10:36:35.542Z,24.85
2023-03-06T10:39:14.166Z,25.60
2023-03-06T10:41:41.579Z,22.77
2023-03-06T10:44:09.638Z,23.50
2023-03-06T10:46:39.490Z,24.38
2023-03-06T10:49:21.648Z,26.02
2023-03-06T10:52:04.769Z,24.13
2023-03-06T10:54:34.629Z,23.48
2023-03-06T10:57:31.805Z,21.58
2023-03-06T11:00:08.638Z,24.67
2023-03-06T11:02:38.688Z,29.65
2023-03-06T11:05:06.856Z,25.23
2023-03-06T11:07:35.500Z,23.88
2023-03-06T11:10:19.343Z,23.48
2023-03-06T11:13:17.171Z,23.45
2023-03-06T11:16:05.904Z,25.95
2023-03-06T11:18:37.650Z,27.73
2023-03-06T11:21:23.330Z,24.58
2023-03-06T11:23:52.131Z,21.40
2023-03-06T11:26:32.583Z,18.42
2023-03-06T11:32:26.808Z,23.33
2023-03-06T11:35:04.391Z,18.70
2023-03-06T11:37:54.045Z,17.95
2023-03-06T11:40:21.399Z,14.23
2023-03-06T11:42:58.355Z,18.20
2023-03-06T11:45:47.295Z,16.10
2023-03-06T11:48:14.698Z,16.20
2023-03-06T11:50:52.714Z,16.83
2023-03-06T11:53:23.479Z,15.70
2023-03-06T11:55:50.792Z,18.52
2023-03-06T11:58:40.362Z,17.02
2023-03-06T12:01:17.567Z,10.75
2023-03-06T12:03:47.730Z,12.73
2023-03-06T12:06:28.740Z,10.32
2023-03-06T12:09:19.448Z,11.98
2023-03-06T12:12:24.016Z,9.18
2023-03-06T12:14:51.431Z,9.73
2023-03-06T12:17:52.025Z,8.50
2023-03-06T12:20:40.146Z,8.27
2023-03-06T12:23:28.553Z,13.43
2023-03-06T12:26:09.883Z,8.85
2023-03-06T12:28:58.503Z,9.57
2023-03-06T12:31:56.368Z,8.02
2023-03-06T12:34:44.804Z,10.70
2023-03-06T12:37:12.176Z,8.23
2023-03-06T12:39:42.184Z,6.65
2023-03-06T12:42:29.582Z,7.40
2023-03-06T12:45:27.988Z,7.30
2023-03-06T12:47:57.030Z,5.00
2023-03-06T12:50:27.073Z,7.88
2023-03-06T12:52:56.839Z,7.50
2023-03-06T12:55:25.968Z,6.40
2023-03-06T12:57:54.073Z,11.07
2023-03-06T13:00:34.308Z,8.07
2023-03-06T13:03:44.981Z,7.03
2023-03-06T13:06:44.988Z,11.32
2023-03-06T13:09:36.053Z,11.95
2023-03-06T13:12:25.557Z,10.65
2023-03-06T13:15:00.857Z,10.90
2023-03-06T13:17:35.375Z,9.02
2023-03-06T13:20:14.770Z,12.02
2023-03-06T13:22:47.526Z,9.48
2023-03-06T13:25:17.547Z,9.38
2023-03-06T13:27:49.422Z,15.02
2023-03-06T13:30:23.016Z,13.65
2023-03-06T13:32:52.901Z,14.02
2023-03-06T13:35:42.846Z,17.05
2023-03-06T13:38:33.382Z,21.33
2023-03-06T13:41:35.464Z,14.43
2023-03-06T13:44:26.379Z,12.13
2023-03-06T13:47:59.092Z,10.20
2023-03-06T13:53:13.027Z,12.95
2023-03-06T13:56:05.073Z,14.15
2023-03-06T13:58:56.612Z,13.30
2023-03-06T14:01:46.358Z,13.55
2023-03-06T14:04:54.289Z,9.07
2023-03-06T14:07:29.724Z,9.05
2023-03-06T14:09:57.128Z,9.48
2023-03-06T14:12:36.383Z,9.52
2023-03-06T14:15:21.591Z,7.97
2023-03-06T14:18:00.432Z,9.82
2023-03-06T14:20:44.921Z,8.65
2023-03-06T14:23:24.142Z,9.88
2023-03-06T14:26:17.427Z,10.73
2023-03-06T14:28:55.299Z,8.98
2023-03-06T14:31:40.819Z,10.88
2023-03-06T14:34:15.547Z,9.15
2023-03-06T14:36:48.983Z,15.70
2023-03-06T14:39:41.785Z,10.45
2023-03-06T14:42:22.141Z,13.35
2023-03-06T14:47:34.563Z,11.77
2023-03-06T14:50:34.638Z,12.52
2023-03-06T14:53:14.874Z,14.57
2023-03-06T14:58:19.951Z,13.60
2023-03-06T15:00:50.970Z,13.75
2023-03-06T15:03:41.609Z,13.10
2023-03-06T15:06:12.169Z,11.95
2023-03-06T15:08:42.343Z,13.45
2023-03-06T15:11:09.609Z,13.73
2023-03-06T15:13:39.109Z,14.07
2023-03-06T15:16:15.181Z,17.30
2023-03-06T15:19:01.988Z,13.13
2023-03-06T15:21:36.230Z,14.68
2023-03-06T15:24:36.981Z,16.20
2023-03-06T15:27:06.551Z,13.68
2023-03-06T15:29:37.713Z,12.05
2023-03-06T15:32:39.182Z,11.50
2023-03-06T15:35:24.704Z,13.90
2023-03-06T15:37:52.214Z,10.32
2023-03-06T15:40:24.368Z,9.05
2023-03-06T15:42:52.038Z,10.73
2023-03-06T15:45:27.690Z,8.82
2023-03-06T15:47:55.733Z,13.98
2023-03-06T15:50:26.105Z,8.73
2023-03-06T15:52:55.757Z,7.88
2023-03-06T15:55:28.440Z,7.45
2023-03-06T15:58:02.172Z,9.30
2023-03-06T16:00:34.161Z,6.43
2023-03-06T16:03:02.203Z,6.50
2023-03-06T16:05:29.918Z,8.23
2023-03-06T16:07:57.277Z,11.25
2023-03-06T16:10:27.475Z,5.78
2023-03-06T16:13:06.278Z,6.00
2023-03-06T16:15:39.999Z,11.27
2023-03-06T16:18:07.540Z,7.55
2023-03-06T16:20:34.966Z,9.18
2023-03-06T16:23:05.607Z,6.05
2023-03-06T16:25:32.971Z,7.40
2023-03-06T16:28:00.931Z,11.20
2023-03-06T16:30:33.131Z,13.05
2023-03-06T16:33:00.798Z,8.27
2023-03-06T16:35:28.297Z,9.00
2023-03-06T16:37:55.620Z,6.72
2023-03-06T16:40:22.964Z,6.10
2023-03-06T16:42:51.668Z,6.35
2023-03-06T16:45:20.547Z,6.63
2023-03-06T16:47:48.104Z,7.20
2023-03-06T16:50:36.392Z,7.45
2023-03-06T16:53:04.230Z,6.68
2023-03-06T16:55:31.612Z,12.00
2023-03-06T16:57:58.953Z,8.73
2023-03-06T17:00:31.229Z,5.82
2023-03-06T17:02:58.616Z,8.73
2023-03-06T17:05:26.106Z,6.25
2023-03-06T17:07:53.637Z,10.52
2023-03-06T17:10:22.780Z,12.18
2023-03-06T17:12:50.197Z,9.85
2023-03-06T17:15:17.545Z,9.65
2023-03-06T17:17:44.846Z,9.30
2023-03-06T17:20:12.720Z,6.97
2023-03-06T17:22:41.551Z,10.20
2023-03-06T17:25:09.228Z,8.23
2023-03-06T17:27:37.078Z,9.20
2023-03-06T17:30:05.404Z,8.65
2023-03-06T17:32:32.923Z,8.07
2023-03-06T17:35:00.404Z,9.80
2023-03-06T17:37:27.934Z,10.40
2023-03-06T17:39:55.282Z,10.93
2023-03-06T17:42:22.542Z,14.13
2023-03-06T17:44:50.961Z,11.07
2023-03-06T17:47:18.305Z,11.82
2023-03-06T17:49:45.665Z,12.00
2023-03-06T17:52:12.921Z,10.20
2023-03-06T17:54:40.512Z,11.82
2023-03-06T17:57:07.789Z,12.45
2023-03-06T17:59:35.073Z,12.20
2023-03-06T18:02:02.819Z,14.63
2023-03-06T18:04:30.329Z,14.68
2023-03-06T18:06:58.411Z,14.00
2023-03-06T18:09:25.829Z,11.65
2023-03-06T18:11:53.179Z,13.15
2023-03-06T18:14:20.436Z,15.63
2023-03-06T18:16:47.986Z,19.20
2023-03-06T18:19:16.457Z,15.38
2023-03-06T18:21:43.754Z,22.23
2023-03-06T18:24:12.371Z,22.88
2023-03-06T18:26:42.268Z,23.92
2023-03-06T18:29:09.553Z,23.23
2023-03-06T18:31:39.003Z,23.60
2023-03-06T18:34:13.575Z,26.52
2023-03-06T18:36:52.682Z,26.08
2023-03-06T18:39:21.448Z,24.65
2023-03-06T18:41:48.824Z,26.80
2023-03-06T18:44:17.484Z,25.80
2023-03-06T18:46:44.776Z,24.77
2023-03-06T18:49:12.658Z,23.63
2023-03-06T18:51:40.231Z,26.65
2023-03-06T18:54:11.385Z,29.58
2023-03-06T18:56:40.381Z,34.38
2023-03-06T18:59:08.006Z,34.92
2023-03-06T19:01:36.794Z,34.20
2023-03-06T19:04:05.202Z,28.25
2023-03-06T19:06:32.876Z,24.42
2023-03-06T19:09:01.827Z,25.77
2023-03-06T19:11:29.590Z,27.30
2023-03-06T19:13:57.108Z,24.90
2023-03-06T19:16:27.063Z,24.65
2023-03-06T19:18:57.644Z,26.80
2023-03-06T19:21:26.840Z,29.90
2023-03-06T19:23:54.760Z,26.30
2023-03-06T19:26:22.660Z,26.30
2023-03-06T19:28:51.699Z,24.75
2023-03-06T19:31:40.139Z,26.85
2023-03-06T19:34:07.699Z,26.65
2023-03-06T19:36:35.643Z,34.97
2023-03-06T19:39:12.864Z,40.78
2023-03-06T19:41:47.764Z,39.90
2023-03-06T19:44:16.338Z,38.75
2023-03-06T19:46:46.002Z,39.85
2023-03-06T19:49:16.901Z,41.92
2023-03-06T19:51:44.879Z,39.53
2023-03-06T19:54:12.879Z,39.35
2023-03-06T19:56:40.815Z,41.80
2023-03-06T19:59:11.590Z,35.63
2023-03-06T20:01:39.687Z,28.27
2023-03-06T20:04:07.786Z,29.75
2023-03-06T20:06:37.698Z,29.73
2023-03-06T20:09:20.405Z,34.22
2023-03-06T20:12:17.716Z,31.30
2023-03-06T20:27:34.558Z,32.80
2023-03-06T20:33:34.992Z,31.00
2023-03-06T20:36:40.855Z,23.20
2023-03-06T20:39:18.343Z,24.92
2023-03-06T20:41:48.615Z,27.38
2023-03-06T20:47:02.448Z,24.38
2023-03-06T20:49:32.296Z,26.25
2023-03-06T20:52:00.074Z,25.08
2023-03-06T20:54:29.870Z,24.63
2023-03-06T20:58:00.142Z,25.45
2023-03-06T21:02:55.066Z,23.98
2023-03-06T21:10:08.745Z,28.50
2023-03-06T21:16:42.423Z,28.20
2023-03-06T21:19:44.682Z,28.60
2023-03-06T21:22:11.784Z,24.45
2023-03-06T21:24:38.722Z,27.20
2023-03-06T21:27:05.689Z,23.50
2023-03-06T21:29:32.568Z,28.73
2023-03-06T21:31:59.559Z,24.85
2023-03-06T21:34:26.488Z,27.27
2023-03-06T21:36:53.427Z,25.45
2023-03-06T21:39:21.351Z,24.23
2023-03-06T21:41:48.261Z,29.90
2023-03-06T21:44:15.270Z,30.48
2023-03-06T21:46:42.225Z,31.42
2023-03-06T21:49:09.583Z,30.00
2023-03-06T21:51:36.860Z,27.70
2023-03-06T21:54:05.990Z,23.05
2023-03-06T21:56:33.713Z,27.80
2023-03-06T21:59:01.104Z,24.40
2023-03-06T22:01:29.002Z,26.50
2023-03-06T22:03:57.409Z,28.30
2023-03-06T22:06:26.680Z,29.08
2023-03-06T22:08:55.528Z,26.40
2023-03-06T22:11:24.249Z,24.90
2023-03-06T22:13:53.396Z,22.48
2023-03-06T22:16:20.941Z,24.02
2023-03-06T22:18:49.920Z,28.27
2023-03-06T22:21:18.875Z,24.38
2023-03-06T22:23:53.299Z,29.10
2023-03-06T22:26:20.632Z,27.27
2023-03-06T22:28:48.076Z,30.73
2023-03-06T22:31:21.462Z,30.15
2023-03-06T22:33:52.181Z,30.10
2023-03-06T22:36:20.361Z,28.40
2023-03-06T22:38:48.509Z,31.98
2023-03-06T22:41:17.555Z,30.17
2023-03-06T22:43:44.617Z,30.08
2023-03-06T22:46:15.141Z,29.70
2023-03-06T22:48:42.849Z,30.73
2023-03-06T22:51:15.505Z,33.67
2023-03-06T22:53:43.085Z,31.85
2023-03-06T22:56:12.349Z,31.25
2023-03-06T22:58:40.414Z,32.38
2023-03-06T23:01:19.307Z,33.70
2023-03-06T23:03:51.892Z,33.47
2023-03-06T23:06:20.227Z,30.40
2023-03-06T23:08:59.979Z,34.17
2023-03-06T23:11:30.539Z,31.15
2023-03-06T23:14:17.470Z,30.38
2023-03-06T23:17:03.151Z,38.60
2023-03-06T23:19:49.735Z,33.28
2023-03-06T23:22:34.979Z,32.28
2023-03-06T23:25:21.032Z,32.20
2023-03-06T23:27:47.963Z,33.03
2023-03-06T23:30:15.066Z,33.78
2023-03-06T23:32:43.745Z,34.88
2023-03-06T23:35:12.190Z,36.00
2023-03-06T23:37:39.500Z,34.38
2023-03-06T23:40:09.012Z,36.33
2023-03-06T23:42:36.225Z,34.85
2023-03-06T23:45:03.355Z,34.08
2023-03-06T23:47:33.907Z,32.90
2023-03-06T23:50:01.229Z,30.45
2023-03-06T23:52:28.110Z,31.15
2023-03-06T23:54:54.996Z,33.90
2023-03-06T23:57:21.913Z,34.47
2023-03-06T23:59:48.859Z,34.05
